createdAt,value
2019-02-27T00:02:11.943Z,4.87
2019-02-27T00:07:13.716Z,4.63
2019-02-27T00:12:16.944Z,4.13
2019-02-27T00:17:18.988Z,4.70
2019-02-27T00:22:20.692Z,5.37
2019-02-27T00:27:22.461Z,4.13
2019-02-27T00:32:24.144Z,4.40
2019-02-27T00:37:25.926Z,4.50
2019-02-27T00:42:33.515Z,4.30
2019-02-27T00:47:31.206Z,4.60
2019-02-27T00:52:32.994Z,5.70
2019-02-27T00:57:34.668Z,5.97
2019-02-27T01:02:36.450Z,6.47
2019-02-27T01:07:38.112Z,6.17
2019-02-27T01:12:39.888Z,6.57
2019-02-27T01:17:41.672Z,6.33
2019-02-27T01:22:43.347Z,6.50
2019-02-27T01:27:45.020Z,6.27
2019-02-27T01:32:46.716Z,5.70
2019-02-27T01:37:48.498Z,5.57
2019-02-27T01:42:50.198Z,4.30
2019-02-27T01:47:51.926Z,4.10
2019-02-27T01:52:53.604Z,4.27
2019-02-27T01:57:55.356Z,4.00
2019-02-27T02:02:57.044Z,4.07
2019-02-27T02:07:58.724Z,5.30
2019-02-27T02:13:05.319Z,4.90
2019-02-27T02:18:29.332Z,4.23
2019-02-27T02:23:50.564Z,5.03
2019-02-27T02:29:11.976Z,3.67
2019-02-27T02:34:31.830Z,3.80
2019-02-27T02:39:54.287Z,3.40
2019-02-27T02:45:32.744Z,4.00
2019-02-27T02:50:38.563Z,4.23
2019-02-27T02:56:23.932Z,4.50
2019-02-27T03:01:37.960Z,4.37
2019-02-27T03:06:49.420Z,4.70
2019-02-27T03:12:09.159Z,4.37
2019-02-27T03:17:30.378Z,3.83
2019-02-27T03:22:40.163Z,5.43
2019-02-27T03:27:53.058Z,3.87
2019-02-27T03:33:03.352Z,5.07
2019-02-27T03:38:12.603Z,4.67
2019-02-27T03:43:49.007Z,5.33
2019-02-27T03:49:02.965Z,4.50
2019-02-27T03:54:20.802Z,4.77
2019-02-27T03:59:41.933Z,5.20
2019-02-27T04:04:54.257Z,6.30
2019-02-27T04:09:56.440Z,5.20
2019-02-27T04:14:58.514Z,5.23
2019-02-27T04:20:00.318Z,5.10
2019-02-27T04:25:01.977Z,5.17
2019-02-27T04:30:04.049Z,5.53
2019-02-27T04:35:06.312Z,4.73
2019-02-27T04:40:10.850Z,4.67
2019-02-27T04:45:12.439Z,4.17
2019-02-27T04:50:14.931Z,4.90
2019-02-27T04:55:16.708Z,4.67
2019-02-27T05:00:18.485Z,5.13
2019-02-27T05:05:20.258Z,4.70
2019-02-27T05:10:22.036Z,5.77
2019-02-27T05:15:23.812Z,6.00
2019-02-27T05:20:25.517Z,6.23
2019-02-27T05:25:27.265Z,5.47
2019-02-27T05:30:29.037Z,5.70
2019-02-27T05:35:30.815Z,5.90
2019-02-27T05:40:32.505Z,5.37
2019-02-27T05:45:34.205Z,5.50
2019-02-27T05:50:35.937Z,5.53
2019-02-27T05:55:39.206Z,5.30
2019-02-27T06:00:41.231Z,5.63
2019-02-27T06:05:49.439Z,5.53
2019-02-27T06:10:46.426Z,5.47
2019-02-27T06:15:49.195Z,4.73
2019-02-27T06:20:51.120Z,5.30
2019-02-27T06:25:58.996Z,6.57
2019-02-27T06:30:56.410Z,6.20
2019-02-27T06:35:58.224Z,6.30
2019-02-27T06:40:59.955Z,5.73
2019-02-27T06:46:01.641Z,6.07
2019-02-27T06:51:03.398Z,6.37
2019-02-27T06:56:05.176Z,6.93
2019-02-27T07:01:09.164Z,5.97
2019-02-27T07:06:10.366Z,6.47
2019-02-27T07:11:12.040Z,6.70
2019-02-27T07:16:13.730Z,6.67
2019-02-27T07:21:15.502Z,6.60
2019-02-27T07:26:17.270Z,6.67
2019-02-27T07:31:19.903Z,5.73
2019-02-27T07:36:21.650Z,6.27
2019-02-27T07:41:23.429Z,6.27
2019-02-27T07:46:27.004Z,5.60
2019-02-27T07:51:29.375Z,6.63
2019-02-27T07:56:34.612Z,7.13
2019-02-27T08:01:43.525Z,7.20
2019-02-27T08:06:41.534Z,6.73
2019-02-27T08:11:47.086Z,8.53
2019-02-27T08:16:48.117Z,6.77
2019-02-27T08:21:49.840Z,6.10
2019-02-27T08:26:53.280Z,6.57
2019-02-27T08:31:55.115Z,5.97
2019-02-27T08:36:56.807Z,6.23
2019-02-27T08:41:58.572Z,6.33
2019-02-27T08:47:00.254Z,6.27
2019-02-27T08:52:01.960Z,6.40
2019-02-27T08:57:03.656Z,5.30
2019-02-27T09:02:05.358Z,5.73
2019-02-27T09:07:07.152Z,4.90
2019-02-27T09:12:13.112Z,5.10
2019-02-27T09:17:12.326Z,5.23
2019-02-27T09:22:15.143Z,4.50
2019-02-27T09:27:16.917Z,5.47
2019-02-27T09:32:20.386Z,6.47
2019-02-27T09:37:22.093Z,6.80
2019-02-27T09:42:23.782Z,7.23
2019-02-27T09:47:25.853Z,7.23
2019-02-27T09:52:30.095Z,7.27
2019-02-27T09:57:32.884Z,6.77
2019-02-27T10:02:35.982Z,5.83
2019-02-27T10:07:37.686Z,6.63
2019-02-27T10:12:39.389Z,6.47
2019-02-27T10:17:43.634Z,6.73
2019-02-27T10:22:44.609Z,6.40
2019-02-27T10:27:47.351Z,5.93
2019-02-27T10:32:49.101Z,6.50
2019-02-27T10:37:54.189Z,5.87
2019-02-27T10:42:54.405Z,5.90
2019-02-27T10:47:56.112Z,6.63
2019-02-27T10:52:57.826Z,5.50
2019-02-27T10:57:59.545Z,5.67
2019-02-27T11:03:01.242Z,5.27
2019-02-27T11:08:02.999Z,4.40
2019-02-27T11:13:06.789Z,4.73
2019-02-27T11:18:08.328Z,5.60
2019-02-27T11:23:10.022Z,5.27
2019-02-27T11:28:11.750Z,4.60
2019-02-27T11:33:24.826Z,3.83
2019-02-27T11:38:16.963Z,4.37
2019-02-27T11:43:18.697Z,4.93
2019-02-27T11:48:22.864Z,4.20
2019-02-27T11:53:24.109Z,4.83
2019-02-27T11:58:25.893Z,5.10
2019-02-27T12:03:30.631Z,4.63
2019-02-27T12:08:32.330Z,4.47
2019-02-27T12:13:34.909Z,3.87
2019-02-27T12:18:37.338Z,3.73
2019-02-27T12:23:41.208Z,4.47
2019-02-27T12:28:42.589Z,4.37
2019-02-27T12:33:44.362Z,4.33
2019-02-27T12:38:46.181Z,3.83
2019-02-27T12:43:52.183Z,3.57
2019-02-27T12:48:51.534Z,3.80
2019-02-27T12:53:54.574Z,3.63
2019-02-27T12:58:58.630Z,3.70
2019-02-27T13:04:00.454Z,3.03
2019-02-27T13:09:02.727Z,3.33
2019-02-27T13:14:04.504Z,3.30
2019-02-27T13:19:07.098Z,3.90
2019-02-27T13:24:09.001Z,3.97
2019-02-27T13:29:10.778Z,4.40
2019-02-27T13:34:13.848Z,4.83
2019-02-27T13:39:16.193Z,4.77
2019-02-27T13:44:17.950Z,4.30
2019-02-27T13:49:19.725Z,5.60
2019-02-27T13:54:22.019Z,5.13
2019-02-27T13:59:23.886Z,5.40
2019-02-27T14:04:29.496Z,5.40
2019-02-27T14:09:31.285Z,5.37
2019-02-27T14:14:32.997Z,5.00
2019-02-27T14:19:36.454Z,5.73
2019-02-27T14:24:38.323Z,5.47
2019-02-27T14:29:41.342Z,4.90
2019-02-27T14:34:43.073Z,5.10
2019-02-27T14:39:44.864Z,5.43
2019-02-27T14:44:46.693Z,5.17
2019-02-27T14:49:48.393Z,6.23
2019-02-27T14:54:50.565Z,5.87
2019-02-27T14:59:52.385Z,6.00
2019-02-27T15:04:54.163Z,6.10
2019-02-27T15:09:57.055Z,6.03
2019-02-27T15:14:58.930Z,6.33
2019-02-27T15:20:01.930Z,7.03
2019-02-27T15:25:07.886Z,6.60
2019-02-27T15:30:12.998Z,7.13
2019-02-27T15:35:12.582Z,6.67
2019-02-27T15:40:15.097Z,7.73
2019-02-27T15:45:17.168Z,7.53
2019-02-27T15:50:22.550Z,7.80
2019-02-27T15:55:22.966Z,8.03
2019-02-27T16:00:24.682Z,8.60
2019-02-27T16:05:29.873Z,8.50
2019-02-27T16:10:29.882Z,8.33
2019-02-27T16:15:31.562Z,8.73
2019-02-27T16:20:33.250Z,8.67
2019-02-27T16:25:34.936Z,9.23
2019-02-27T16:30:37.238Z,8.27
2019-02-27T16:35:42.071Z,8.57
2019-02-27T16:40:42.421Z,7.80
2019-02-27T16:45:44.107Z,8.30
2019-02-27T16:50:45.824Z,7.97
2019-02-27T16:55:48.116Z,9.57
2019-02-27T17:00:54.211Z,8.00
2019-02-27T17:05:53.542Z,8.53
2019-02-27T17:10:55.222Z,8.37
2019-02-27T17:15:56.904Z,9.77
2019-02-27T17:20:58.582Z,9.77
2019-02-27T17:26:03.287Z,8.70
2019-02-27T17:31:03.743Z,9.53
2019-02-27T17:36:05.450Z,8.37
2019-02-27T17:41:08.746Z,10.53
2019-02-27T17:46:10.645Z,9.63
2019-02-27T17:51:12.330Z,10.47
2019-02-27T17:56:15.650Z,10.03
2019-02-27T18:01:24.945Z,10.23
2019-02-27T18:06:24.211Z,9.60
2019-02-27T18:11:25.896Z,9.70
2019-02-27T18:16:27.979Z,10.10
2019-02-27T18:21:33.193Z,10.60
2019-02-27T18:26:33.269Z,10.83
2019-02-27T18:31:35.031Z,11.87
2019-02-27T18:36:42.709Z,12.47
2019-02-27T18:41:40.226Z,14.10
2019-02-27T18:46:41.921Z,15.57
2019-02-27T18:51:43.611Z,15.60
2019-02-27T18:56:45.355Z,17.63
2019-02-27T19:01:47.128Z,16.27
2019-02-27T19:06:48.817Z,19.83
2019-02-27T19:11:50.880Z,19.47
2019-02-27T19:16:55.151Z,19.17
2019-02-27T19:21:56.835Z,20.67
2019-02-27T19:26:58.527Z,21.77
2019-02-27T19:32:00.225Z,21.87
2019-02-27T19:37:02.582Z,23.53
2019-02-27T19:42:05.493Z,24.83
2019-02-27T19:47:07.195Z,28.07
2019-02-27T19:52:08.899Z,26.73
2019-02-27T19:57:10.614Z,26.07
2019-02-27T20:02:12.345Z,27.63
2019-02-27T20:07:14.336Z,29.70
2019-02-27T20:12:16.518Z,29.23
2019-02-27T20:17:18.334Z,28.70
2019-02-27T20:22:20.093Z,30.10
2019-02-27T20:27:21.778Z,29.70
2019-02-27T20:32:28.387Z,27.10
2019-02-27T20:37:27.045Z,30.70
2019-02-27T20:42:28.850Z,31.90
2019-02-27T20:47:30.945Z,33.33
2019-02-27T20:52:32.683Z,34.67
2019-02-27T20:57:35.987Z,33.40
2019-02-27T21:02:37.818Z,33.40
2019-02-27T21:07:39.737Z,33.93
2019-02-27T21:12:51.077Z,34.53
2019-02-27T21:17:45.522Z,31.67
2019-02-27T21:22:47.346Z,33.67
2019-02-27T21:27:49.413Z,34.30
2019-02-27T21:32:51.209Z,35.60
2019-02-27T21:37:52.962Z,34.50
2019-02-27T21:42:54.744Z,46.23
2019-02-27T21:47:56.524Z,35.70
2019-02-27T21:52:58.200Z,40.50
2019-02-27T21:57:59.970Z,37.10
2019-02-27T22:03:04.920Z,31.47
2019-02-27T22:08:06.116Z,32.40
2019-02-27T22:13:10.495Z,34.10
2019-02-27T22:18:12.143Z,32.43
2019-02-27T22:23:18.102Z,35.73
2019-02-27T22:28:20.695Z,35.20
2019-02-27T22:33:23.172Z,33.10
2019-02-27T22:38:26.642Z,33.77
2019-02-27T22:43:28.656Z,33.13
2019-02-27T22:48:30.341Z,33.70
2019-02-27T22:53:32.104Z,32.10
2019-02-27T22:58:33.815Z,31.63
2019-02-27T23:03:40.181Z,32.83
2019-02-27T23:08:42.004Z,33.57
2019-02-27T23:13:47.444Z,31.77
2019-02-27T23:18:48.360Z,31.43
2019-02-27T23:23:50.149Z,44.23
2019-02-27T23:28:51.929Z,31.87
2019-02-27T23:33:53.709Z,32.80
2019-02-27T23:38:55.472Z,29.47
2019-02-27T23:43:57.279Z,30.77
2019-02-27T23:48:58.985Z,29.27
2019-02-27T23:54:01.210Z,27.80
2019-02-27T23:59:03.831Z,29.27
